sensor_id;sensor_type;location;lat;lon;timestamp;P1;durP1;ratioP1;P2;durP2;ratioP2
479;SDS011;226;48.606;9.096;2022-11-04T00:01:36;2.50;;;1.63;;
479;SDS011;226;48.606;9.096;2022-11-04T00:04:05;2.97;;;1.17;;
479;SDS011;226;48.606;9.096;2022-11-04T00:06:34;1.70;;;1.60;;
479;SDS011;226;48.606;9.096;2022-11-04T00:09:04;1.20;;;1.10;;
479;SDS011;226;48.606;9.096;2022-11-04T00:11:34;0.90;;;0.90;;
479;SDS011;226;48.606;9.096;2022-11-04T00:14:20;3.30;;;1.17;;
479;SDS011;226;48.606;9.096;2022-11-04T00:16:48;1.20;;;1.07;;
479;SDS011;226;48.606;9.096;2022-11-04T00:19:34;1.10;;;1.00;;
479;SDS011;226;48.606;9.096;2022-11-04T00:22:16;1.10;;;1.10;;
479;SDS011;226;48.606;9.096;2022-11-04T00:25:03;2.10;;;1.20;;
479;SDS011;226;48.606;9.096;2022-11-04T00:27:49;1.40;;;1.27;;
479;SDS011;226;48.606;9.096;2022-11-04T00:30:35;1.93;;;1.50;;
479;SDS011;226;48.606;9.096;2022-11-04T00:33:03;0.77;;;0.77;;
479;SDS011;226;48.606;9.096;2022-11-04T00:35:49;1.03;;;0.93;;
479;SDS011;226;48.606;9.096;2022-11-04T00:38:17;1.40;;;1.30;;
479;SDS011;226;48.606;9.096;2022-11-04T00:40:46;1.00;;;0.90;;
479;SDS011;226;48.606;9.096;2022-11-04T00:43:14;0.97;;;0.97;;
479;SDS011;226;48.606;9.096;2022-11-04T00:45:43;1.83;;;1.70;;
479;SDS011;226;48.606;9.096;2022-11-04T00:48:11;1.93;;;1.83;;
479;SDS011;226;48.606;9.096;2022-11-04T00:50:39;1.40;;;1.40;;
479;SDS011;226;48.606;9.096;2022-11-04T00:53:08;1.80;;;1.20;;
479;SDS011;226;48.606;9.096;2022-11-04T00:55:36;1.50;;;1.20;;
479;SDS011;226;48.606;9.096;2022-11-04T00:58:06;1.77;;;1.37;;
479;SDS011;226;48.606;9.096;2022-11-04T01:00:34;1.70;;;1.60;;
479;SDS011;226;48.606;9.096;2022-11-04T01:03:02;1.00;;;1.00;;
479;SDS011;226;48.606;9.096;2022-11-04T01:05:30;1.67;;;1.13;;
479;SDS011;226;48.606;9.096;2022-11-04T01:07:58;1.50;;;1.50;;
479;SDS011;226;48.606;9.096;2022-11-04T01:10:26;1.07;;;1.07;;
479;SDS011;226;48.606;9.096;2022-11-04T01:12:54;2.10;;;1.87;;
479;SDS011;226;48.606;9.096;2022-11-04T01:15:23;1.40;;;1.30;;
479;SDS011;226;48.606;9.096;2022-11-04T01:17:52;1.73;;;1.63;;
479;SDS011;226;48.606;9.096;2022-11-04T01:20:20;1.20;;;1.10;;
479;SDS011;226;48.606;9.096;2022-11-04T01:22:48;1.33;;;1.17;;
479;SDS011;226;48.606;9.096;2022-11-04T01:25:16;0.90;;;0.90;;
479;SDS011;226;48.606;9.096;2022-11-04T01:27:44;0.90;;;0.90;;
479;SDS011;226;48.606;9.096;2022-11-04T01:30:12;1.30;;;0.83;;
479;SDS011;226;48.606;9.096;2022-11-04T01:32:41;1.07;;;1.07;;
479;SDS011;226;48.606;9.096;2022-11-04T01:35:09;1.13;;;1.03;;
479;SDS011;226;48.606;9.096;2022-11-04T01:37:38;0.80;;;0.80;;
479;SDS011;226;48.606;9.096;2022-11-04T01:40:06;0.90;;;0.90;;
479;SDS011;226;48.606;9.096;2022-11-04T01:42:35;3.97;;;1.10;;
479;SDS011;226;48.606;9.096;2022-11-04T01:45:03;1.67;;;1.57;;
479;SDS011;226;48.606;9.096;2022-11-04T01:47:38;3.60;;;1.33;;
479;SDS011;226;48.606;9.096;2022-11-04T01:50:10;1.50;;;1.10;;
479;SDS011;226;48.606;9.096;2022-11-04T01:52:40;1.27;;;1.13;;
479;SDS011;226;48.606;9.096;2022-11-04T01:55:12;0.77;;;0.77;;
479;SDS011;226;48.606;9.096;2022-11-04T01:57:45;1.80;;;1.70;;
479;SDS011;226;48.606;9.096;2022-11-04T02:00:15;1.10;;;1.00;;
479;SDS011;226;48.606;9.096;2022-11-04T02:02:52;0.77;;;0.77;;
479;SDS011;226;48.606;9.096;2022-11-04T02:05:27;1.17;;;1.07;;
479;SDS011;226;48.606;9.096;2022-11-04T02:07:57;1.77;;;1.00;;
479;SDS011;226;48.606;9.096;2022-11-04T02:10:26;3.17;;;1.37;;
479;SDS011;226;48.606;9.096;2022-11-04T02:12:57;2.20;;;1.87;;
479;SDS011;226;48.606;9.096;2022-11-04T02:15:29;0.73;;;0.73;;
479;SDS011;226;48.606;9.096;2022-11-04T02:18:06;0.90;;;0.90;;
479;SDS011;226;48.606;9.096;2022-11-04T02:20:47;0.60;;;0.60;;
479;SDS011;226;48.606;9.096;2022-11-04T02:29:31;0.70;;;0.70;;
479;SDS011;226;48.606;9.096;2022-11-04T02:32:15;0.73;;;0.73;;
479;SDS011;226;48.606;9.096;2022-11-04T02:34:53;1.10;;;1.00;;
479;SDS011;226;48.606;9.096;2022-11-04T02:37:28;2.73;;;1.20;;
479;SDS011;226;48.606;9.096;2022-11-04T02:40:04;2.40;;;1.40;;
479;SDS011;226;48.606;9.096;2022-11-04T02:42:44;1.20;;;0.70;;
479;SDS011;226;48.606;9.096;2022-11-04T02:45:21;1.07;;;0.97;;
479;SDS011;226;48.606;9.096;2022-11-04T02:47:57;1.10;;;1.00;;
479;SDS011;226;48.606;9.096;2022-11-04T02:50:30;1.30;;;1.20;;
479;SDS011;226;48.606;9.096;2022-11-04T02:53:04;0.93;;;0.93;;
479;SDS011;226;48.606;9.096;2022-11-04T02:55:39;1.40;;;1.23;;
479;SDS011;226;48.606;9.096;2022-11-04T02:58:12;1.03;;;1.03;;
479;SDS011;226;48.606;9.096;2022-11-04T03:00:46;1.80;;;1.00;;
479;SDS011;226;48.606;9.096;2022-11-04T03:03:16;1.37;;;1.27;;
479;SDS011;226;48.606;9.096;2022-11-04T03:05:48;0.70;;;0.70;;
479;SDS011;226;48.606;9.096;2022-11-04T03:08:20;0.97;;;0.97;;
479;SDS011;226;48.606;9.096;2022-11-04T03:10:52;0.80;;;0.80;;
479;SDS011;226;48.606;9.096;2022-11-04T03:13:25;0.87;;;0.87;;
479;SDS011;226;48.606;9.096;2022-11-04T03:15:57;0.80;;;0.80;;
479;SDS011;226;48.606;9.096;2022-11-04T03:18:31;1.23;;;1.07;;
479;SDS011;226;48.606;9.096;2022-11-04T03:21:02;0.80;;;0.80;;
479;SDS011;226;48.606;9.096;2022-11-04T03:23:32;0.60;;;0.60;;
479;SDS011;226;48.606;9.096;2022-11-04T03:26:06;0.87;;;0.87;;
479;SDS011;226;48.606;9.096;2022-11-04T03:28:37;0.80;;;0.80;;
479;SDS011;226;48.606;9.096;2022-11-04T03:31:10;1.10;;;1.03;;
479;SDS011;226;48.606;9.096;2022-11-04T03:33:41;1.47;;;1.47;;
479;SDS011;226;48.606;9.096;2022-11-04T03:36:11;1.00;;;1.00;;
479;SDS011;226;48.606;9.096;2022-11-04T03:38:39;0.83;;;0.83;;
479;SDS011;226;48.606;9.096;2022-11-04T03:41:08;1.83;;;1.40;;
479;SDS011;226;48.606;9.096;2022-11-04T03:43:39;3.17;;;1.40;;
479;SDS011;226;48.606;9.096;2022-11-04T03:46:09;0.73;;;0.73;;
479;SDS011;226;48.606;9.096;2022-11-04T03:48:39;0.80;;;0.80;;
479;SDS011;226;48.606;9.096;2022-11-04T03:51:10;0.77;;;0.77;;
479;SDS011;226;48.606;9.096;2022-11-04T03:53:38;1.47;;;0.90;;
479;SDS011;226;48.606;9.096;2022-11-04T03:56:19;3.97;;;1.20;;
479;SDS011;226;48.606;9.096;2022-11-04T03:58:52;0.90;;;0.90;;
479;SDS011;226;48.606;9.096;2022-11-04T04:01:32;1.03;;;1.03;;
479;SDS011;226;48.606;9.096;2022-11-04T04:04:11;1.77;;;1.30;;
479;SDS011;226;48.606;9.096;2022-11-04T04:06:42;1.17;;;1.17;;
479;SDS011;226;48.606;9.096;2022-11-04T04:09:12;1.63;;;1.53;;
479;SDS011;226;48.606;9.096;2022-11-04T04:11:44;1.90;;;1.33;;
479;SDS011;226;48.606;9.096;2022-11-04T04:14:17;5.50;;;1.00;;
479;SDS011;226;48.606;9.096;2022-11-04T04:17:04;1.00;;;1.00;;
479;SDS011;226;48.606;9.096;2022-11-04T04:19:36;1.03;;;1.00;;
479;SDS011;226;48.606;9.096;2022-11-04T04:22:08;1.97;;;1.00;;
479;SDS011;226;48.606;9.096;2022-11-04T04:24:39;0.80;;;0.80;;
479;SDS011;226;48.606;9.096;2022-11-04T04:27:28;0.60;;;0.60;;
479;SDS011;226;48.606;9.096;2022-11-04T04:29:57;0.80;;;0.80;;
479;SDS011;226;48.606;9.096;2022-11-04T04:32:30;0.77;;;0.77;;
479;SDS011;226;48.606;9.096;2022-11-04T04:35:00;1.13;;;1.13;;
479;SDS011;226;48.606;9.096;2022-11-04T04:37:46;1.20;;;1.10;;
479;SDS011;226;48.606;9.096;2022-11-04T04:40:15;1.27;;;1.10;;
479;SDS011;226;48.606;9.096;2022-11-04T04:43:05;0.80;;;0.80;;
479;SDS011;226;48.606;9.096;2022-11-04T04:45:53;2.40;;;2.30;;
479;SDS011;226;48.606;9.096;2022-11-04T04:48:24;1.10;;;1.10;;
479;SDS011;226;48.606;9.096;2022-11-04T04:50:52;1.10;;;1.10;;
479;SDS011;226;48.606;9.096;2022-11-04T04:53:27;1.10;;;1.10;;
479;SDS011;226;48.606;9.096;2022-11-04T04:55:55;1.03;;;1.00;;
479;SDS011;226;48.606;9.096;2022-11-04T04:58:23;1.53;;;1.03;;
479;SDS011;226;48.606;9.096;2022-11-04T05:00:51;1.93;;;0.80;;
479;SDS011;226;48.606;9.096;2022-11-04T05:03:19;0.80;;;0.80;;
479;SDS011;226;48.606;9.096;2022-11-04T05:05:49;2.33;;;1.60;;
479;SDS011;226;48.606;9.096;2022-11-04T05:08:21;1.03;;;1.03;;
479;SDS011;226;48.606;9.096;2022-11-04T05:10:49;1.03;;;1.03;;
479;SDS011;226;48.606;9.096;2022-11-04T05:13:17;1.00;;;0.97;;
479;SDS011;226;48.606;9.096;2022-11-04T05:15:55;1.00;;;1.00;;
479;SDS011;226;48.606;9.096;2022-11-04T05:18:24;1.60;;;0.90;;
479;SDS011;226;48.606;9.096;2022-11-04T05:20:53;1.30;;;1.30;;
479;SDS011;226;48.606;9.096;2022-11-04T05:23:21;0.90;;;0.90;;
479;SDS011;226;48.606;9.096;2022-11-04T05:25:49;1.00;;;1.00;;
479;SDS011;226;48.606;9.096;2022-11-04T05:28:17;0.90;;;0.90;;
479;SDS011;226;48.606;9.096;2022-11-04T05:30:45;1.10;;;1.10;;
479;SDS011;226;48.606;9.096;2022-11-04T05:33:13;3.40;;;1.13;;
479;SDS011;226;48.606;9.096;2022-11-04T05:35:41;1.10;;;1.00;;
479;SDS011;226;48.606;9.096;2022-11-04T05:38:11;0.93;;;0.93;;
479;SDS011;226;48.606;9.096;2022-11-04T05:40:39;4.00;;;1.50;;
479;SDS011;226;48.606;9.096;2022-11-04T05:43:07;1.40;;;1.30;;
479;SDS011;226;48.606;9.096;2022-11-04T05:45:35;1.03;;;0.93;;
479;SDS011;226;48.606;9.096;2022-11-04T05:48:03;1.17;;;1.17;;
479;SDS011;226;48.606;9.096;2022-11-04T05:50:32;1.87;;;1.77;;
479;SDS011;226;48.606;9.096;2022-11-04T05:53:00;1.10;;;1.10;;
479;SDS011;226;48.606;9.096;2022-11-04T05:55:29;2.00;;;1.43;;
479;SDS011;226;48.606;9.096;2022-11-04T05:57:57;2.30;;;2.10;;
479;SDS011;226;48.606;9.096;2022-11-04T06:00:26;1.20;;;1.13;;
479;SDS011;226;48.606;9.096;2022-11-04T06:02:54;0.93;;;0.93;;
479;SDS011;226;48.606;9.096;2022-11-04T06:05:23;1.57;;;1.47;;
479;SDS011;226;48.606;9.096;2022-11-04T06:07:52;1.60;;;1.50;;
479;SDS011;226;48.606;9.096;2022-11-04T06:10:20;1.70;;;1.60;;
479;SDS011;226;48.606;9.096;2022-11-04T06:12:49;1.17;;;1.17;;
479;SDS011;226;48.606;9.096;2022-11-04T06:15:17;1.10;;;1.10;;
479;SDS011;226;48.606;9.096;2022-11-04T06:17:45;0.90;;;0.90;;
479;SDS011;226;48.606;9.096;2022-11-04T06:20:13;1.70;;;1.60;;
479;SDS011;226;48.606;9.096;2022-11-04T06:22:41;1.40;;;1.40;;
479;SDS011;226;48.606;9.096;2022-11-04T06:25:09;1.23;;;1.10;;
479;SDS011;226;48.606;9.096;2022-11-04T06:27:38;1.27;;;1.27;;
479;SDS011;226;48.606;9.096;2022-11-04T06:30:08;0.80;;;0.80;;
479;SDS011;226;48.606;9.096;2022-11-04T06:32:39;1.53;;;1.43;;
479;SDS011;226;48.606;9.096;2022-11-04T06:35:07;1.77;;;1.10;;
479;SDS011;226;48.606;9.096;2022-11-04T06:37:35;2.00;;;1.90;;
479;SDS011;226;48.606;9.096;2022-11-04T06:40:04;5.07;;;2.00;;
479;SDS011;226;48.606;9.096;2022-11-04T06:42:33;2.87;;;2.67;;
479;SDS011;226;48.606;9.096;2022-11-04T06:45:01;2.70;;;2.50;;
479;SDS011;226;48.606;9.096;2022-11-04T06:47:31;2.90;;;2.63;;
479;SDS011;226;48.606;9.096;2022-11-04T06:49:59;2.73;;;2.53;;
479;SDS011;226;48.606;9.096;2022-11-04T06:52:27;3.23;;;2.93;;
479;SDS011;226;48.606;9.096;2022-11-04T06:54:55;1.60;;;1.50;;
479;SDS011;226;48.606;9.096;2022-11-04T06:57:23;1.97;;;1.53;;
479;SDS011;226;48.606;9.096;2022-11-04T06:59:51;1.00;;;1.00;;
479;SDS011;226;48.606;9.096;2022-11-04T07:02:19;1.80;;;1.70;;
479;SDS011;226;48.606;9.096;2022-11-04T07:04:52;2.10;;;1.33;;
479;SDS011;226;48.606;9.096;2022-11-04T07:07:20;1.07;;;1.07;;
479;SDS011;226;48.606;9.096;2022-11-04T07:09:48;1.33;;;1.33;;
479;SDS011;226;48.606;9.096;2022-11-04T07:12:16;0.90;;;0.90;;
479;SDS011;226;48.606;9.096;2022-11-04T07:14:44;1.17;;;1.17;;
479;SDS011;226;48.606;9.096;2022-11-04T07:17:12;4.03;;;3.63;;
479;SDS011;226;48.606;9.096;2022-11-04T07:19:40;4.83;;;3.00;;
479;SDS011;226;48.606;9.096;2022-11-04T07:22:09;9.33;;;3.30;;
479;SDS011;226;48.606;9.096;2022-11-04T07:24:37;7.37;;;2.20;;
479;SDS011;226;48.606;9.096;2022-11-04T07:27:05;1.93;;;1.83;;
479;SDS011;226;48.606;9.096;2022-11-04T07:29:33;0.90;;;0.90;;
479;SDS011;226;48.606;9.096;2022-11-04T07:32:02;5.03;;;2.73;;
479;SDS011;226;48.606;9.096;2022-11-04T07:34:30;2.63;;;1.30;;
479;SDS011;226;48.606;9.096;2022-11-04T07:36:58;1.90;;;1.80;;
479;SDS011;226;48.606;9.096;2022-11-04T07:39:27;3.33;;;1.50;;
479;SDS011;226;48.606;9.096;2022-11-04T07:41:55;3.00;;;2.53;;
479;SDS011;226;48.606;9.096;2022-11-04T07:44:25;16.07;;;2.60;;
479;SDS011;226;48.606;9.096;2022-11-04T07:46:53;2.10;;;1.90;;
479;SDS011;226;48.606;9.096;2022-11-04T07:49:21;12.17;;;2.80;;
479;SDS011;226;48.606;9.096;2022-11-04T07:51:50;4.67;;;3.00;;
479;SDS011;226;48.606;9.096;2022-11-04T07:54:18;2.00;;;1.80;;
479;SDS011;226;48.606;9.096;2022-11-04T07:56:48;3.40;;;2.80;;
479;SDS011;226;48.606;9.096;2022-11-04T07:59:16;3.97;;;2.90;;
479;SDS011;226;48.606;9.096;2022-11-04T08:01:44;11.93;;;3.80;;
479;SDS011;226;48.606;9.096;2022-11-04T08:04:12;6.13;;;5.73;;
479;SDS011;226;48.606;9.096;2022-11-04T08:06:40;12.43;;;4.37;;
479;SDS011;226;48.606;9.096;2022-11-04T08:09:08;6.83;;;4.53;;
479;SDS011;226;48.606;9.096;2022-11-04T08:11:36;4.83;;;3.73;;
479;SDS011;226;48.606;9.096;2022-11-04T08:14:05;4.83;;;3.93;;
479;SDS011;226;48.606;9.096;2022-11-04T08:16:33;6.90;;;4.33;;
479;SDS011;226;48.606;9.096;2022-11-04T08:19:01;9.07;;;5.80;;
479;SDS011;226;48.606;9.096;2022-11-04T08:21:29;8.53;;;4.17;;
479;SDS011;226;48.606;9.096;2022-11-04T08:23:59;11.87;;;4.80;;
479;SDS011;226;48.606;9.096;2022-11-04T08:26:29;13.70;;;4.30;;
479;SDS011;226;48.606;9.096;2022-11-04T08:28:57;12.33;;;4.80;;
479;SDS011;226;48.606;9.096;2022-11-04T08:31:28;4.83;;;3.37;;
479;SDS011;226;48.606;9.096;2022-11-04T08:33:57;8.37;;;4.97;;
479;SDS011;226;48.606;9.096;2022-11-04T08:36:27;8.97;;;5.30;;
479;SDS011;226;48.606;9.096;2022-11-04T08:38:56;6.80;;;4.67;;
479;SDS011;226;48.606;9.096;2022-11-04T08:41:28;7.67;;;4.40;;
479;SDS011;226;48.606;9.096;2022-11-04T08:43:57;5.60;;;5.07;;
479;SDS011;226;48.606;9.096;2022-11-04T08:46:28;4.73;;;3.90;;
479;SDS011;226;48.606;9.096;2022-11-04T08:48:58;7.23;;;5.10;;
479;SDS011;226;48.606;9.096;2022-11-04T08:51:34;6.37;;;4.23;;
479;SDS011;226;48.606;9.096;2022-11-04T08:54:03;7.37;;;3.87;;
479;SDS011;226;48.606;9.096;2022-11-04T08:56:32;3.40;;;3.17;;
479;SDS011;226;48.606;9.096;2022-11-04T08:59:02;6.37;;;4.43;;
479;SDS011;226;48.606;9.096;2022-11-04T09:01:35;6.80;;;3.20;;
479;SDS011;226;48.606;9.096;2022-11-04T09:04:06;1.83;;;1.70;;
479;SDS011;226;48.606;9.096;2022-11-04T09:06:39;4.90;;;2.00;;
479;SDS011;226;48.606;9.096;2022-11-04T09:09:11;3.23;;;1.67;;
479;SDS011;226;48.606;9.096;2022-11-04T09:11:42;1.10;;;1.10;;
479;SDS011;226;48.606;9.096;2022-11-04T09:14:14;1.80;;;1.30;;
479;SDS011;226;48.606;9.096;2022-11-04T09:16:45;1.60;;;1.50;;
479;SDS011;226;48.606;9.096;2022-11-04T09:19:14;3.40;;;1.73;;
479;SDS011;226;48.606;9.096;2022-11-04T09:21:44;1.23;;;1.23;;
479;SDS011;226;48.606;9.096;2022-11-04T09:24:13;1.77;;;1.53;;
479;SDS011;226;48.606;9.096;2022-11-04T09:26:42;1.00;;;1.00;;
479;SDS011;226;48.606;9.096;2022-11-04T09:29:11;2.50;;;1.50;;
479;SDS011;226;48.606;9.096;2022-11-04T09:31:39;0.80;;;0.80;;
479;SDS011;226;48.606;9.096;2022-11-04T09:34:09;0.80;;;0.80;;
479;SDS011;226;48.606;9.096;2022-11-04T09:36:37;3.37;;;2.27;;
479;SDS011;226;48.606;9.096;2022-11-04T09:39:05;1.70;;;1.10;;
479;SDS011;226;48.606;9.096;2022-11-04T09:41:39;1.30;;;1.20;;
479;SDS011;226;48.606;9.096;2022-11-04T09:44:24;0.90;;;0.90;;
479;SDS011;226;48.606;9.096;2022-11-04T09:46:56;1.27;;;0.83;;
479;SDS011;226;48.606;9.096;2022-11-04T09:49:28;0.80;;;0.80;;
479;SDS011;226;48.606;9.096;2022-11-04T09:52:02;1.27;;;1.20;;
479;SDS011;226;48.606;9.096;2022-11-04T09:54:35;10.10;;;1.87;;
479;SDS011;226;48.606;9.096;2022-11-04T09:57:15;0.80;;;0.80;;
479;SDS011;226;48.606;9.096;2022-11-04T09:59:44;1.03;;;1.03;;
479;SDS011;226;48.606;9.096;2022-11-04T10:02:27;0.73;;;0.73;;
479;SDS011;226;48.606;9.096;2022-11-04T10:05:13;0.83;;;0.80;;
479;SDS011;226;48.606;9.096;2022-11-04T10:07:51;0.90;;;0.90;;
479;SDS011;226;48.606;9.096;2022-11-04T10:10:25;2.53;;;1.10;;
479;SDS011;226;48.606;9.096;2022-11-04T10:13:00;2.53;;;1.00;;
479;SDS011;226;48.606;9.096;2022-11-04T10:15:40;1.03;;;1.03;;
479;SDS011;226;48.606;9.096;2022-11-04T10:18:18;1.17;;;1.07;;
479;SDS011;226;48.606;9.096;2022-11-04T10:20:54;1.17;;;0.80;;
479;SDS011;226;48.606;9.096;2022-11-04T10:23:26;0.87;;;0.80;;
479;SDS011;226;48.606;9.096;2022-11-04T10:26:00;1.70;;;1.57;;
479;SDS011;226;48.606;9.096;2022-11-04T10:28:33;1.10;;;1.10;;
479;SDS011;226;48.606;9.096;2022-11-04T10:31:04;0.90;;;0.90;;
479;SDS011;226;48.606;9.096;2022-11-04T10:33:34;0.93;;;0.90;;
479;SDS011;226;48.606;9.096;2022-11-04T10:36:07;3.17;;;1.23;;
479;SDS011;226;48.606;9.096;2022-11-04T10:38:38;1.27;;;1.20;;
479;SDS011;226;48.606;9.096;2022-11-04T10:41:15;0.90;;;0.60;;
479;SDS011;226;48.606;9.096;2022-11-04T10:43:46;3.03;;;0.70;;
479;SDS011;226;48.606;9.096;2022-11-04T10:46:19;1.07;;;1.03;;
479;SDS011;226;48.606;9.096;2022-11-04T10:48:56;1.53;;;1.43;;
479;SDS011;226;48.606;9.096;2022-11-04T10:51:28;0.70;;;0.70;;
479;SDS011;226;48.606;9.096;2022-11-04T10:53:58;0.90;;;0.80;;
479;SDS011;226;48.606;9.096;2022-11-04T10:56:31;0.83;;;0.83;;
479;SDS011;226;48.606;9.096;2022-11-04T10:59:05;1.10;;;0.73;;
479;SDS011;226;48.606;9.096;2022-11-04T11:01:47;5.63;;;1.53;;
479;SDS011;226;48.606;9.096;2022-11-04T11:04:24;8.70;;;1.30;;
479;SDS011;226;48.606;9.096;2022-11-04T11:06:56;0.97;;;0.97;;
479;SDS011;226;48.606;9.096;2022-11-04T11:09:26;2.00;;;1.03;;
479;SDS011;226;48.606;9.096;2022-11-04T11:11:57;1.17;;;1.00;;
479;SDS011;226;48.606;9.096;2022-11-04T11:14:31;0.63;;;0.63;;
479;SDS011;226;48.606;9.096;2022-11-04T11:17:16;1.23;;;1.13;;
479;SDS011;226;48.606;9.096;2022-11-04T11:19:47;0.73;;;0.73;;
479;SDS011;226;48.606;9.096;2022-11-04T11:22:29;0.83;;;0.83;;
479;SDS011;226;48.606;9.096;2022-11-04T11:25:11;2.00;;;1.17;;
479;SDS011;226;48.606;9.096;2022-11-04T11:27:43;1.27;;;1.27;;
479;SDS011;226;48.606;9.096;2022-11-04T11:30:20;0.97;;;0.60;;
479;SDS011;226;48.606;9.096;2022-11-04T11:32:51;1.00;;;0.90;;
479;SDS011;226;48.606;9.096;2022-11-04T11:35:22;0.70;;;0.70;;
479;SDS011;226;48.606;9.096;2022-11-04T11:37:54;1.53;;;0.70;;
479;SDS011;226;48.606;9.096;2022-11-04T11:40:25;2.10;;;0.70;;
479;SDS011;226;48.606;9.096;2022-11-04T11:42:57;0.80;;;0.80;;
479;SDS011;226;48.606;9.096;2022-11-04T11:45:26;2.10;;;1.83;;
479;SDS011;226;48.606;9.096;2022-11-04T11:47:56;1.20;;;0.80;;
479;SDS011;226;48.606;9.096;2022-11-04T11:50:26;0.80;;;0.80;;
479;SDS011;226;48.606;9.096;2022-11-04T11:53:13;1.10;;;0.93;;
479;SDS011;226;48.606;9.096;2022-11-04T11:55:45;12.40;;;1.17;;
479;SDS011;226;48.606;9.096;2022-11-04T11:58:18;0.87;;;0.87;;
479;SDS011;226;48.606;9.096;2022-11-04T12:01:12;0.60;;;0.60;;
479;SDS011;226;48.606;9.096;2022-11-04T12:03:50;4.63;;;0.70;;
479;SDS011;226;48.606;9.096;2022-11-04T12:06:42;0.60;;;0.60;;
479;SDS011;226;48.606;9.096;2022-11-04T12:09:39;1.13;;;0.67;;
479;SDS011;226;48.606;9.096;2022-11-04T12:12:23;6.83;;;1.53;;
479;SDS011;226;48.606;9.096;2022-11-04T12:15:00;3.60;;;1.20;;
479;SDS011;226;48.606;9.096;2022-11-04T12:17:37;0.93;;;0.93;;
479;SDS011;226;48.606;9.096;2022-11-04T12:22:54;0.73;;;0.73;;
479;SDS011;226;48.606;9.096;2022-11-04T12:25:30;2.30;;;1.90;;
479;SDS011;226;48.606;9.096;2022-11-04T12:28:03;1.20;;;1.10;;
479;SDS011;226;48.606;9.096;2022-11-04T12:30:36;2.53;;;0.90;;
479;SDS011;226;48.606;9.096;2022-11-04T12:33:11;2.00;;;1.43;;
479;SDS011;226;48.606;9.096;2022-11-04T12:35:51;6.80;;;1.30;;
479;SDS011;226;48.606;9.096;2022-11-04T12:38:31;1.00;;;1.00;;
479;SDS011;226;48.606;9.096;2022-11-04T12:41:07;2.20;;;2.00;;
479;SDS011;226;48.606;9.096;2022-11-04T12:43:58;4.17;;;1.10;;
479;SDS011;226;48.606;9.096;2022-11-04T12:46:35;0.90;;;0.90;;
479;SDS011;226;48.606;9.096;2022-11-04T12:49:11;1.53;;;1.03;;
479;SDS011;226;48.606;9.096;2022-11-04T12:51:47;1.90;;;1.27;;
479;SDS011;226;48.606;9.096;2022-11-04T12:54:33;2.10;;;1.17;;
479;SDS011;226;48.606;9.096;2022-11-04T12:57:10;0.70;;;0.70;;
479;SDS011;226;48.606;9.096;2022-11-04T12:59:45;21.13;;;1.10;;
479;SDS011;226;48.606;9.096;2022-11-04T13:02:19;1.10;;;1.10;;
479;SDS011;226;48.606;9.096;2022-11-04T13:04:52;0.53;;;0.53;;
479;SDS011;226;48.606;9.096;2022-11-04T13:07:27;1.60;;;0.70;;
479;SDS011;226;48.606;9.096;2022-11-04T13:09:58;0.60;;;0.60;;
479;SDS011;226;48.606;9.096;2022-11-04T13:12:30;4.43;;;0.93;;
479;SDS011;226;48.606;9.096;2022-11-04T13:15:00;0.90;;;0.80;;
479;SDS011;226;48.606;9.096;2022-11-04T13:17:31;3.10;;;1.03;;
479;SDS011;226;48.606;9.096;2022-11-04T13:20:02;0.70;;;0.70;;
479;SDS011;226;48.606;9.096;2022-11-04T13:22:33;1.17;;;1.13;;
479;SDS011;226;48.606;9.096;2022-11-04T13:25:05;1.17;;;1.07;;
479;SDS011;226;48.606;9.096;2022-11-04T13:27:38;0.57;;;0.57;;
479;SDS011;226;48.606;9.096;2022-11-04T13:30:15;0.83;;;0.83;;
479;SDS011;226;48.606;9.096;2022-11-04T13:32:48;1.13;;;1.03;;
479;SDS011;226;48.606;9.096;2022-11-04T13:35:22;0.83;;;0.83;;
479;SDS011;226;48.606;9.096;2022-11-04T13:37:57;0.87;;;0.87;;
479;SDS011;226;48.606;9.096;2022-11-04T13:40:28;1.13;;;0.77;;
479;SDS011;226;48.606;9.096;2022-11-04T13:46:22;0.60;;;0.60;;
479;SDS011;226;48.606;9.096;2022-11-04T13:49:00;0.70;;;0.60;;
479;SDS011;226;48.606;9.096;2022-11-04T13:51:35;1.53;;;1.13;;
479;SDS011;226;48.606;9.096;2022-11-04T13:54:12;3.80;;;1.50;;
479;SDS011;226;48.606;9.096;2022-11-04T13:57:01;0.60;;;0.60;;
479;SDS011;226;48.606;9.096;2022-11-04T13:59:33;2.70;;;1.33;;
479;SDS011;226;48.606;9.096;2022-11-04T14:04:50;4.73;;;1.23;;
479;SDS011;226;48.606;9.096;2022-11-04T14:07:18;1.03;;;0.70;;
479;SDS011;226;48.606;9.096;2022-11-04T14:10:34;0.80;;;0.80;;
479;SDS011;226;48.606;9.096;2022-11-04T14:12:56;1.90;;;0.87;;
479;SDS011;226;48.606;9.096;2022-11-04T14:15:59;5.80;;;0.90;;
479;SDS011;226;48.606;9.096;2022-11-04T14:18:28;0.90;;;0.90;;
479;SDS011;226;48.606;9.096;2022-11-04T14:21:03;0.93;;;0.60;;
479;SDS011;226;48.606;9.096;2022-11-04T14:23:31;2.40;;;0.90;;
479;SDS011;226;48.606;9.096;2022-11-04T14:26:01;3.30;;;2.20;;
479;SDS011;226;48.606;9.096;2022-11-04T14:28:30;1.53;;;1.37;;
479;SDS011;226;48.606;9.096;2022-11-04T14:30:59;2.77;;;1.27;;
479;SDS011;226;48.606;9.096;2022-11-04T14:33:30;0.83;;;0.83;;
479;SDS011;226;48.606;9.096;2022-11-04T14:38:52;0.90;;;0.90;;
479;SDS011;226;48.606;9.096;2022-11-04T14:41:22;1.00;;;0.70;;
479;SDS011;226;48.606;9.096;2022-11-04T14:43:58;1.00;;;1.00;;
479;SDS011;226;48.606;9.096;2022-11-04T14:46:28;1.77;;;1.03;;
479;SDS011;226;48.606;9.096;2022-11-04T14:48:57;1.10;;;1.10;;
479;SDS011;226;48.606;9.096;2022-11-04T14:51:27;4.87;;;1.07;;
479;SDS011;226;48.606;9.096;2022-11-04T14:54:01;1.13;;;1.00;;
479;SDS011;226;48.606;9.096;2022-11-04T14:56:30;8.43;;;1.40;;
479;SDS011;226;48.606;9.096;2022-11-04T14:58:59;3.47;;;1.00;;
479;SDS011;226;48.606;9.096;2022-11-04T15:01:29;1.10;;;1.10;;
479;SDS011;226;48.606;9.096;2022-11-04T15:04:04;0.90;;;0.90;;
479;SDS011;226;48.606;9.096;2022-11-04T15:06:39;1.27;;;1.00;;
479;SDS011;226;48.606;9.096;2022-11-04T15:09:24;0.80;;;0.80;;
479;SDS011;226;48.606;9.096;2022-11-04T15:11:57;0.80;;;0.80;;
479;SDS011;226;48.606;9.096;2022-11-04T15:14:44;1.23;;;1.10;;
479;SDS011;226;48.606;9.096;2022-11-04T15:17:15;1.70;;;1.37;;
479;SDS011;226;48.606;9.096;2022-11-04T15:19:46;0.80;;;0.80;;
479;SDS011;226;48.606;9.096;2022-11-04T15:22:15;0.80;;;0.80;;
479;SDS011;226;48.606;9.096;2022-11-04T15:24:45;0.60;;;0.60;;
479;SDS011;226;48.606;9.096;2022-11-04T15:27:16;1.17;;;0.60;;
479;SDS011;226;48.606;9.096;2022-11-04T15:29:52;1.80;;;1.07;;
479;SDS011;226;48.606;9.096;2022-11-04T15:32:20;0.90;;;0.90;;
479;SDS011;226;48.606;9.096;2022-11-04T15:34:49;0.90;;;0.90;;
479;SDS011;226;48.606;9.096;2022-11-04T15:37:18;0.73;;;0.73;;
479;SDS011;226;48.606;9.096;2022-11-04T15:39:48;2.77;;;1.47;;
479;SDS011;226;48.606;9.096;2022-11-04T15:42:20;1.17;;;0.63;;
479;SDS011;226;48.606;9.096;2022-11-04T15:45:25;0.90;;;0.50;;
479;SDS011;226;48.606;9.096;2022-11-04T15:50:41;0.60;;;0.60;;
479;SDS011;226;48.606;9.096;2022-11-04T15:53:13;1.38;;;1.00;;
479;SDS011;226;48.606;9.096;2022-11-04T15:55:43;7.67;;;1.77;;
479;SDS011;226;48.606;9.096;2022-11-04T15:58:14;1.47;;;1.37;;
479;SDS011;226;48.606;9.096;2022-11-04T16:00:42;0.80;;;0.80;;
479;SDS011;226;48.606;9.096;2022-11-04T16:03:19;0.60;;;0.60;;
479;SDS011;226;48.606;9.096;2022-11-04T16:05:59;1.00;;;1.00;;
479;SDS011;226;48.606;9.096;2022-11-04T16:08:29;0.80;;;0.80;;
479;SDS011;226;48.606;9.096;2022-11-04T16:11:10;1.30;;;1.20;;
479;SDS011;226;48.606;9.096;2022-11-04T16:13:41;2.50;;;1.73;;
479;SDS011;226;48.606;9.096;2022-11-04T16:18:56;1.00;;;1.00;;
479;SDS011;226;48.606;9.096;2022-11-04T16:21:25;0.90;;;0.90;;
479;SDS011;226;48.606;9.096;2022-11-04T16:23:56;0.70;;;0.70;;
479;SDS011;226;48.606;9.096;2022-11-04T16:26:28;0.70;;;0.70;;
479;SDS011;226;48.606;9.096;2022-11-04T16:29:00;0.90;;;0.90;;
479;SDS011;226;48.606;9.096;2022-11-04T16:31:31;0.80;;;0.80;;
479;SDS011;226;48.606;9.096;2022-11-04T16:34:00;1.70;;;1.10;;
479;SDS011;226;48.606;9.096;2022-11-04T16:36:29;0.90;;;0.90;;
479;SDS011;226;48.606;9.096;2022-11-04T16:39:02;1.90;;;1.30;;
479;SDS011;226;48.606;9.096;2022-11-04T16:41:35;1.20;;;1.17;;